createdAt,value
2022-12-24T00:01:22.025Z,1.90
2022-12-24T00:03:49.477Z,2.08
2022-12-24T00:06:23.515Z,2.13
2022-12-24T00:08:53.172Z,2.03
2022-12-24T00:11:22.082Z,1.80
2022-12-24T00:13:51.897Z,1.60
2022-12-24T00:16:18.936Z,2.08
2022-12-24T00:18:47.098Z,3.05
2022-12-24T00:21:19.663Z,2.80
2022-12-24T00:23:46.628Z,3.15
2022-12-24T00:26:14.452Z,3.33
2022-12-24T00:28:41.740Z,3.45
2022-12-24T00:31:11.981Z,3.05
2022-12-24T00:33:44.102Z,3.08
2022-12-24T00:36:11.444Z,2.67
2022-12-24T00:38:41.603Z,1.92
2022-12-24T00:41:25.519Z,2.33
2022-12-24T00:44:10.116Z,2.22
2022-12-24T00:46:41.508Z,2.15
2022-12-24T00:51:41.522Z,1.75
2022-12-24T00:54:08.520Z,1.20
2022-12-24T00:56:35.549Z,1.27
2022-12-24T00:59:09.501Z,1.25
2022-12-24T01:01:41.058Z,1.20
2022-12-24T01:06:58.335Z,1.15
2022-12-24T01:09:25.214Z,1.15
2022-12-24T01:11:52.115Z,1.50
2022-12-24T01:14:23.741Z,1.00
2022-12-24T01:16:50.715Z,1.38
2022-12-24T01:19:17.680Z,1.60
2022-12-24T01:21:44.590Z,1.90
2022-12-24T01:24:17.141Z,2.08
2022-12-24T01:26:45.272Z,1.90
2022-12-24T01:29:12.316Z,2.53
2022-12-24T01:31:39.452Z,2.63
2022-12-24T01:34:08.649Z,3.15
2022-12-24T01:36:38.114Z,3.47
2022-12-24T01:39:05.563Z,4.10
2022-12-24T01:41:52.008Z,4.25
2022-12-24T01:44:36.067Z,3.90
2022-12-24T01:47:15.022Z,3.20
2022-12-24T01:49:59.971Z,2.40
2022-12-24T01:52:32.186Z,2.60
2022-12-24T01:55:04.562Z,2.30
2022-12-24T01:57:44.578Z,2.10
2022-12-24T02:00:18.060Z,2.60
2022-12-24T02:02:48.552Z,1.63
2022-12-24T02:05:17.379Z,1.30
2022-12-24T02:07:44.946Z,1.20
2022-12-24T02:10:13.368Z,1.15
2022-12-24T02:12:45.007Z,0.98
2022-12-24T02:18:37.978Z,0.98
2022-12-24T02:21:46.855Z,1.30
2022-12-24T02:25:07.266Z,1.20
2022-12-24T02:27:58.292Z,1.13
2022-12-24T02:30:39.267Z,1.00
2022-12-24T02:33:25.768Z,0.70
2022-12-24T02:36:23.872Z,1.95
2022-12-24T02:39:04.435Z,2.83
2022-12-24T02:41:57.688Z,1.65
2022-12-24T02:44:32.180Z,1.30
2022-12-24T02:47:01.128Z,1.40
2022-12-24T02:49:28.177Z,1.10
2022-12-24T02:51:55.150Z,1.10
2022-12-24T02:54:22.814Z,1.10
2022-12-24T02:57:06.866Z,1.33
2022-12-24T03:00:05.113Z,1.33
2022-12-24T03:03:07.750Z,1.38
2022-12-24T03:05:46.156Z,1.42
2022-12-24T03:08:44.448Z,1.42
2022-12-24T03:11:15.714Z,1.20
2022-12-24T03:13:49.397Z,1.20
2022-12-24T03:16:24.211Z,1.63
2022-12-24T03:18:53.933Z,1.20
2022-12-24T03:21:38.752Z,0.90
2022-12-24T03:24:08.590Z,1.08
2022-12-24T03:26:36.168Z,0.90
2022-12-24T03:29:09.786Z,1.02
2022-12-24T03:31:43.042Z,1.20
2022-12-24T03:34:11.342Z,1.20
2022-12-24T03:36:40.471Z,1.20
2022-12-24T03:39:09.681Z,1.10
2022-12-24T03:41:37.969Z,1.20
2022-12-24T03:44:07.838Z,1.10
2022-12-24T03:46:34.772Z,1.00
2022-12-24T03:49:01.742Z,1.00
2022-12-24T03:51:33.279Z,1.05
2022-12-24T03:56:30.715Z,1.02
2022-12-24T03:59:00.132Z,0.90
2022-12-24T04:01:27.164Z,0.77
2022-12-24T04:03:54.198Z,1.05
2022-12-24T04:06:21.211Z,1.00
2022-12-24T04:08:48.199Z,0.90
2022-12-24T04:11:17.035Z,1.10
2022-12-24T04:13:46.538Z,1.00
2022-12-24T04:16:18.870Z,0.95
2022-12-24T04:18:50.787Z,0.82
2022-12-24T04:21:19.957Z,0.85
2022-12-24T04:23:51.766Z,0.80
2022-12-24T04:26:18.773Z,0.90
2022-12-24T04:28:45.739Z,1.08
2022-12-24T04:31:18.185Z,0.88
2022-12-24T04:33:46.371Z,1.45
2022-12-24T04:36:17.964Z,1.38
2022-12-24T04:41:23.811Z,1.27
2022-12-24T04:43:53.892Z,1.17
2022-12-24T04:46:24.899Z,1.20
2022-12-24T04:48:56.205Z,1.02
2022-12-24T04:51:24.675Z,1.10
2022-12-24T04:53:52.480Z,1.20
2022-12-24T04:56:29.626Z,1.50
2022-12-24T04:58:57.559Z,1.00
2022-12-24T05:01:28.592Z,1.00
2022-12-24T05:03:55.991Z,0.95
2022-12-24T05:06:30.756Z,1.17
2022-12-24T05:08:58.907Z,1.15
2022-12-24T05:11:26.057Z,1.27
2022-12-24T05:13:53.102Z,1.10
2022-12-24T05:16:23.326Z,1.40
2022-12-24T05:18:51.312Z,1.40
2022-12-24T05:21:21.867Z,1.33
2022-12-24T05:24:07.952Z,1.48
2022-12-24T05:26:54.023Z,1.23
2022-12-24T05:29:21.647Z,1.23
2022-12-24T05:31:48.779Z,1.52
2022-12-24T05:34:17.225Z,1.60
2022-12-24T05:36:45.427Z,1.33
2022-12-24T05:39:21.365Z,1.52
2022-12-24T05:41:48.370Z,1.27
2022-12-24T05:44:20.561Z,1.20
2022-12-24T05:46:50.393Z,1.40
2022-12-24T05:49:19.502Z,1.10
2022-12-24T05:51:46.493Z,1.02
2022-12-24T05:54:13.544Z,1.35
2022-12-24T05:56:40.751Z,1.33
2022-12-24T05:59:10.039Z,1.70
2022-12-24T06:01:39.298Z,1.33
2022-12-24T06:04:09.338Z,1.33
2022-12-24T06:06:38.749Z,1.20
2022-12-24T06:09:07.926Z,1.35
2022-12-24T06:11:39.431Z,1.40
2022-12-24T06:14:06.400Z,1.15
2022-12-24T06:16:33.393Z,1.10
2022-12-24T06:19:00.394Z,1.25
2022-12-24T06:21:27.280Z,1.23
2022-12-24T06:23:56.333Z,0.98
2022-12-24T06:26:26.046Z,1.10
2022-12-24T06:28:55.405Z,1.40
2022-12-24T06:31:23.719Z,1.10
2022-12-24T06:33:51.945Z,1.25
2022-12-24T06:36:24.445Z,1.50
2022-12-24T06:38:53.439Z,1.00
2022-12-24T06:41:23.674Z,0.88
2022-12-24T06:43:52.990Z,1.42
2022-12-24T06:46:21.117Z,1.42
2022-12-24T06:48:48.374Z,1.20
2022-12-24T06:51:19.519Z,1.35
2022-12-24T06:53:47.121Z,1.02
2022-12-24T06:56:15.058Z,0.80
2022-12-24T06:58:45.123Z,0.93
2022-12-24T07:01:18.003Z,1.13
2022-12-24T07:03:46.049Z,1.08
2022-12-24T07:06:23.976Z,1.50
2022-12-24T07:08:50.962Z,1.42
2022-12-24T07:11:20.502Z,1.00
2022-12-24T07:13:47.881Z,1.20
2022-12-24T07:16:15.610Z,1.17
2022-12-24T07:18:44.731Z,0.95
2022-12-24T07:21:11.788Z,1.27
2022-12-24T07:23:38.781Z,1.25
2022-12-24T07:26:08.736Z,1.30
2022-12-24T07:28:37.939Z,1.50
2022-12-24T07:31:05.038Z,1.30
2022-12-24T07:33:34.293Z,1.85
2022-12-24T07:36:07.995Z,1.40
2022-12-24T07:38:35.478Z,1.73
2022-12-24T07:41:04.868Z,1.63
2022-12-24T07:43:33.841Z,1.67
2022-12-24T07:46:04.096Z,1.77
2022-12-24T07:48:32.948Z,1.52
2022-12-24T07:51:02.381Z,1.85
2022-12-24T07:53:32.279Z,1.77
2022-12-24T07:55:59.414Z,1.80
2022-12-24T07:58:29.668Z,1.58
2022-12-24T08:01:00.903Z,1.58
2022-12-24T08:03:28.626Z,1.70
2022-12-24T08:05:55.698Z,1.40
2022-12-24T08:08:22.761Z,1.85
2022-12-24T08:10:49.816Z,1.67
2022-12-24T08:13:17.300Z,1.60
2022-12-24T08:15:45.785Z,1.50
2022-12-24T08:18:12.867Z,1.50
2022-12-24T08:20:42.587Z,1.55
2022-12-24T08:23:14.618Z,1.38
2022-12-24T08:25:47.339Z,1.30
2022-12-24T08:28:18.732Z,1.73
2022-12-24T08:30:48.766Z,1.60
2022-12-24T08:33:18.373Z,1.80
2022-12-24T08:35:56.168Z,1.60
2022-12-24T08:38:23.729Z,1.90
2022-12-24T08:40:53.581Z,1.83
2022-12-24T08:43:21.680Z,2.10
2022-12-24T08:45:54.185Z,2.80
2022-12-24T08:48:24.319Z,3.13
2022-12-24T08:50:53.350Z,3.35
2022-12-24T08:53:20.284Z,3.45
2022-12-24T08:55:55.666Z,2.67
2022-12-24T08:58:23.012Z,2.92
2022-12-24T09:00:50.047Z,2.70
2022-12-24T09:03:20.683Z,3.50
2022-12-24T09:05:53.583Z,3.88
2022-12-24T09:08:25.978Z,3.13
2022-12-24T09:10:52.914Z,2.55
2022-12-24T09:13:19.939Z,2.35
2022-12-24T09:15:54.925Z,2.13
2022-12-24T09:18:24.287Z,2.58
2022-12-24T09:20:56.891Z,2.67
2022-12-24T09:23:26.570Z,2.80
2022-12-24T09:25:53.795Z,3.25
2022-12-24T09:28:21.352Z,2.65
2022-12-24T09:31:03.607Z,2.70
2022-12-24T09:33:36.293Z,3.08
2022-12-24T09:36:04.311Z,3.25
2022-12-24T09:38:31.729Z,3.33
2022-12-24T09:41:08.718Z,3.80
2022-12-24T09:43:37.363Z,3.78
2022-12-24T09:46:21.470Z,3.53
2022-12-24T09:48:55.314Z,3.05
2022-12-24T09:51:44.407Z,3.80
2022-12-24T09:54:19.003Z,3.90
2022-12-24T09:56:48.528Z,3.50
2022-12-24T09:59:23.620Z,3.53
2022-12-24T10:01:54.213Z,3.00
2022-12-24T10:04:30.938Z,3.30
2022-12-24T10:07:25.905Z,2.90
2022-12-24T10:10:40.531Z,2.95
2022-12-24T10:13:31.265Z,2.80
2022-12-24T10:16:15.190Z,3.20
2022-12-24T10:19:19.306Z,3.40
2022-12-24T10:22:31.431Z,3.03
2022-12-24T10:27:42.331Z,2.10
2022-12-24T10:30:23.174Z,1.90
2022-12-24T10:32:53.542Z,2.53
2022-12-24T10:35:32.139Z,2.33
2022-12-24T10:38:01.200Z,2.10
2022-12-24T10:40:40.733Z,2.17
2022-12-24T10:43:21.422Z,1.88
2022-12-24T10:46:02.875Z,2.30
2022-12-24T10:48:48.466Z,2.17
2022-12-24T10:51:47.403Z,2.65
2022-12-24T10:54:27.111Z,1.95
2022-12-24T10:57:02.537Z,2.10
2022-12-24T10:59:39.707Z,2.00
2022-12-24T11:02:28.284Z,1.67
2022-12-24T11:04:55.754Z,1.95
2022-12-24T11:07:24.170Z,1.90
2022-12-24T11:10:06.809Z,2.15
2022-12-24T11:13:05.814Z,1.85
2022-12-24T11:15:35.182Z,1.30
2022-12-24T11:18:15.114Z,1.50
2022-12-24T11:20:51.688Z,1.90
2022-12-24T11:23:19.145Z,1.70
2022-12-24T11:25:53.347Z,1.50
2022-12-24T11:28:33.540Z,1.60
2022-12-24T11:31:07.041Z,1.60
2022-12-24T11:33:50.974Z,1.73
2022-12-24T11:36:27.561Z,1.40
2022-12-24T11:38:57.462Z,1.60
2022-12-24T11:41:35.833Z,2.03
2022-12-24T11:44:07.872Z,2.05
2022-12-24T11:46:38.965Z,3.22
2022-12-24T11:49:29.665Z,4.93
2022-12-24T11:52:11.970Z,9.35
2022-12-24T11:55:16.297Z,3.95
2022-12-24T11:58:20.101Z,2.80
2022-12-24T12:00:51.582Z,1.98
2022-12-24T12:03:43.845Z,2.05
2022-12-24T12:06:40.921Z,1.88
2022-12-24T12:09:22.433Z,1.50
2022-12-24T12:11:58.699Z,1.60
2022-12-24T12:14:39.772Z,1.60
2022-12-24T12:17:31.418Z,2.22
2022-12-24T12:20:06.216Z,6.32
